createdAt,value
2023-01-04T00:01:21.703Z,99157.00
2023-01-04T00:03:49.614Z,99154.00
2023-01-04T00:06:18.848Z,99166.00
2023-01-04T00:08:46.489Z,99173.00
2023-01-04T00:11:17.682Z,99165.00
2023-01-04T00:13:45.713Z,99168.00
2023-01-04T00:16:15.283Z,99178.00
2023-01-04T00:18:43.382Z,99173.00
2023-01-04T00:21:13.283Z,99168.00
2023-01-04T00:23:44.641Z,99170.00
2023-01-04T00:26:14.407Z,99165.00
2023-01-04T00:28:43.248Z,99171.00
2023-01-04T00:31:15.469Z,99165.00
2023-01-04T00:33:43.684Z,99165.00
2023-01-04T00:36:13.943Z,99162.00
2023-01-04T00:38:43.584Z,99151.00
2023-01-04T00:41:28.296Z,99158.00
2023-01-04T00:44:03.366Z,99162.00
2023-01-04T00:46:32.283Z,99167.00
2023-01-04T00:49:01.093Z,99159.00
2023-01-04T00:51:29.847Z,99156.00
2023-01-04T00:53:58.889Z,99154.00
2023-01-04T00:56:26.529Z,99151.00
2023-01-04T00:58:55.773Z,99136.00
2023-01-04T01:01:23.958Z,99147.00
2023-01-04T01:03:55.164Z,99147.00
2023-01-04T01:06:24.844Z,99153.00
2023-01-04T01:08:53.175Z,99147.00
2023-01-04T01:11:22.912Z,99139.00
2023-01-04T01:13:51.438Z,99146.00
2023-01-04T01:16:44.452Z,99143.00
2023-01-04T01:19:10.058Z,99131.00
2023-01-04T01:21:38.011Z,99133.00
2023-01-04T01:24:07.004Z,99138.00
2023-01-04T01:26:35.956Z,99137.00
2023-01-04T01:29:03.657Z,99136.00
2023-01-04T01:31:31.343Z,99143.00
2023-01-04T01:33:59.065Z,99146.00
2023-01-04T01:36:27.810Z,99150.00
2023-01-04T01:38:57.028Z,99154.00
2023-01-04T01:41:27.165Z,99146.00
2023-01-04T01:43:58.257Z,99140.00
2023-01-04T01:46:30.094Z,99139.00
2023-01-04T01:49:01.980Z,99140.00
2023-01-04T01:51:31.068Z,99145.00
2023-01-04T01:54:05.513Z,99132.00
2023-01-04T01:56:37.153Z,99136.00
2023-01-04T01:59:06.901Z,99140.00
2023-01-04T02:01:35.048Z,99134.00
2023-01-04T02:04:05.083Z,99135.00
2023-01-04T02:06:36.867Z,99135.00
2023-01-04T02:09:04.852Z,99136.00
2023-01-04T02:11:32.904Z,99137.00
2023-01-04T02:14:19.351Z,99133.00
2023-01-04T02:17:01.867Z,99144.00
2023-01-04T02:19:43.879Z,99124.00
2023-01-04T02:22:34.309Z,99120.00
2023-01-04T02:25:24.855Z,99124.00
2023-01-04T02:27:57.955Z,99121.00
2023-01-04T02:31:12.987Z,99108.00
2023-01-04T02:33:50.072Z,99099.00
2023-01-04T02:36:25.876Z,99100.00
2023-01-04T02:39:04.492Z,99099.00
2023-01-04T02:41:35.708Z,99096.00
2023-01-04T02:44:28.973Z,99098.00
2023-01-04T02:47:02.576Z,99105.00
2023-01-04T02:49:49.633Z,99105.00
2023-01-04T02:52:17.527Z,99109.00
2023-01-04T02:54:48.240Z,99116.00
2023-01-04T02:57:26.403Z,99109.00
2023-01-04T03:00:14.580Z,99099.00
2023-01-04T03:03:28.323Z,99091.00
2023-01-04T03:06:16.824Z,99097.00
2023-01-04T03:08:52.763Z,99108.00
2023-01-04T03:11:38.011Z,99106.00
2023-01-04T03:14:32.014Z,99102.00
2023-01-04T03:17:01.274Z,99096.00
2023-01-04T03:19:55.935Z,99087.00
2023-01-04T03:22:49.031Z,99080.00
2023-01-04T03:25:37.147Z,99085.00
2023-01-04T03:28:24.755Z,99096.00
2023-01-04T03:31:14.034Z,99082.00
2023-01-04T03:33:59.469Z,99086.00
2023-01-04T03:36:41.613Z,99082.00
2023-01-04T03:39:31.553Z,99077.00
2023-01-04T03:42:19.796Z,99080.00
2023-01-04T03:45:11.104Z,99074.00
2023-01-04T03:48:03.070Z,99075.00
2023-01-04T03:50:38.419Z,99069.00
2023-01-04T03:53:09.121Z,99075.00
2023-01-04T03:55:38.984Z,99070.00
2023-01-04T03:58:06.629Z,99053.00
2023-01-04T04:00:35.197Z,99053.00
2023-01-04T04:03:08.138Z,99044.00
2023-01-04T04:05:56.454Z,99051.00
2023-01-04T04:08:26.623Z,99037.00
2023-01-04T04:10:55.552Z,99039.00
2023-01-04T04:13:23.672Z,99024.00
2023-01-04T04:15:54.884Z,99034.00
2023-01-04T04:18:22.572Z,99021.00
2023-01-04T04:20:58.259Z,99024.00
2023-01-04T04:23:27.216Z,99028.00
2023-01-04T04:25:54.808Z,99030.00
2023-01-04T04:28:22.391Z,99016.00
2023-01-04T04:30:50.369Z,99014.00
2023-01-04T04:33:18.068Z,99012.00
2023-01-04T04:35:45.659Z,99018.00
2023-01-04T04:38:13.265Z,99019.00
2023-01-04T04:40:59.645Z,99014.00
2023-01-04T04:43:27.226Z,99022.00
2023-01-04T04:45:54.871Z,99015.00
2023-01-04T04:48:22.507Z,99012.00
2023-01-04T04:50:50.100Z,99006.00
2023-01-04T04:53:17.740Z,99006.00
2023-01-04T04:55:46.758Z,99011.00
2023-01-04T04:58:14.385Z,99009.00
2023-01-04T05:00:42.184Z,98994.00
2023-01-04T05:03:10.023Z,98995.00
2023-01-04T05:05:37.878Z,98987.00
2023-01-04T05:08:06.007Z,98986.00
2023-01-04T05:10:33.609Z,98989.00
2023-01-04T05:13:01.677Z,98980.00
2023-01-04T05:15:30.588Z,98974.00
2023-01-04T05:17:58.172Z,98980.00
2023-01-04T05:20:26.003Z,98966.00
2023-01-04T05:22:53.610Z,98973.00
2023-01-04T05:25:21.257Z,98978.00
2023-01-04T05:27:48.882Z,98985.00
2023-01-04T05:30:36.233Z,98982.00
2023-01-04T05:33:04.544Z,98976.00
2023-01-04T05:35:32.542Z,98968.00
2023-01-04T05:38:00.131Z,98974.00
2023-01-04T05:40:28.242Z,98968.00
2023-01-04T05:42:56.021Z,98971.00
2023-01-04T05:45:25.041Z,98968.00
2023-01-04T05:47:54.063Z,98979.00
2023-01-04T05:50:23.611Z,98978.00
2023-01-04T05:52:52.063Z,98970.00
2023-01-04T05:55:20.427Z,98980.00
2023-01-04T05:57:48.589Z,98970.00
2023-01-04T06:00:16.791Z,98968.00
2023-01-04T06:02:45.992Z,98968.00
2023-01-04T06:05:13.947Z,98969.00
2023-01-04T06:07:42.622Z,98959.00
2023-01-04T06:10:12.271Z,98961.00
2023-01-04T06:12:40.593Z,98960.00
2023-01-04T06:15:10.010Z,98955.00
2023-01-04T06:17:38.630Z,98941.00
2023-01-04T06:20:10.498Z,98938.00
2023-01-04T06:22:40.517Z,98947.00
2023-01-04T06:25:08.785Z,98940.00
2023-01-04T06:27:36.694Z,98936.00
2023-01-04T06:30:04.877Z,98941.00
2023-01-04T06:32:32.491Z,98941.00
2023-01-04T06:35:00.175Z,98930.00
2023-01-04T06:37:29.214Z,98923.00
2023-01-04T06:39:56.821Z,98928.00
2023-01-04T06:42:42.165Z,98921.00
2023-01-04T06:45:10.499Z,98916.00
2023-01-04T06:47:38.156Z,98921.00
2023-01-04T06:50:06.213Z,98913.00
2023-01-04T06:52:35.236Z,98909.00
2023-01-04T06:55:02.855Z,98908.00
2023-01-04T06:57:30.885Z,98897.00
2023-01-04T06:59:58.496Z,98896.00
2023-01-04T07:02:26.714Z,98900.00
2023-01-04T07:04:54.577Z,98892.00
2023-01-04T07:07:22.232Z,98894.00
2023-01-04T07:09:51.176Z,98892.00
2023-01-04T07:12:18.846Z,98892.00
2023-01-04T07:14:46.484Z,98885.00
2023-01-04T07:17:14.107Z,98889.00
2023-01-04T07:19:41.723Z,98889.00
2023-01-04T07:22:09.736Z,98883.00
2023-01-04T07:24:37.393Z,98875.00
2023-01-04T07:27:06.734Z,98877.00
2023-01-04T07:29:34.482Z,98879.00
2023-01-04T07:32:02.178Z,98870.00
2023-01-04T07:34:29.904Z,98864.00
2023-01-04T07:36:57.642Z,98863.00
2023-01-04T07:39:25.284Z,98866.00
2023-01-04T07:41:53.097Z,98861.00
2023-01-04T07:44:25.671Z,98867.00
2023-01-04T07:46:53.482Z,98865.00
2023-01-04T07:49:21.489Z,98872.00
2023-01-04T07:51:50.636Z,98872.00
2023-01-04T07:54:19.435Z,98860.00
2023-01-04T07:56:48.222Z,98859.00
2023-01-04T07:59:17.492Z,98864.00
2023-01-04T08:01:46.793Z,98863.00
2023-01-04T08:04:15.861Z,98860.00
2023-01-04T08:06:46.762Z,98853.00
2023-01-04T08:09:14.654Z,98860.00
2023-01-04T08:11:42.314Z,98850.00
2023-01-04T08:14:10.389Z,98855.00
2023-01-04T08:16:40.434Z,98850.00
2023-01-04T08:19:13.698Z,98854.00
2023-01-04T08:21:41.607Z,98839.00
2023-01-04T08:24:11.627Z,98844.00
2023-01-04T08:26:39.341Z,98842.00
2023-01-04T08:29:07.478Z,98840.00
2023-01-04T08:31:35.792Z,98845.00
2023-01-04T08:34:05.447Z,98832.00
2023-01-04T08:36:36.110Z,98828.00
2023-01-04T08:39:06.279Z,98831.00
2023-01-04T08:42:04.286Z,98816.00
2023-01-04T08:44:35.606Z,98819.00
2023-01-04T08:47:03.726Z,98807.00
2023-01-04T08:49:31.411Z,98800.00
2023-01-04T08:52:00.475Z,98793.00
2023-01-04T08:54:28.170Z,98780.00
2023-01-04T08:56:55.806Z,98777.00
2023-01-04T08:59:23.437Z,98773.00
2023-01-04T09:01:51.210Z,98778.00
2023-01-04T09:04:19.231Z,98778.00
2023-01-04T09:06:46.935Z,98771.00
2023-01-04T09:09:16.149Z,98773.00
2023-01-04T09:11:43.813Z,98764.00
2023-01-04T09:14:13.944Z,98773.00
2023-01-04T09:16:41.770Z,98769.00
2023-01-04T09:19:09.509Z,98772.00
2023-01-04T09:21:37.394Z,98776.00
2023-01-04T09:24:05.708Z,98769.00
2023-01-04T09:26:34.869Z,98773.00
2023-01-04T09:29:03.651Z,98766.00
2023-01-04T09:31:31.390Z,98752.00
2023-01-04T09:34:17.436Z,98757.00
2023-01-04T09:36:46.388Z,98753.00
2023-01-04T09:39:21.768Z,98752.00
2023-01-04T09:41:56.937Z,98750.00
2023-01-04T09:45:03.095Z,98747.00
2023-01-04T09:47:30.386Z,98742.00
2023-01-04T09:50:01.884Z,98756.00
2023-01-04T09:52:42.039Z,98762.00
2023-01-04T09:55:37.692Z,98754.00
2023-01-04T09:58:18.042Z,98743.00
2023-01-04T10:00:47.755Z,98750.00
2023-01-04T10:03:20.999Z,98740.00
2023-01-04T10:05:49.539Z,98744.00
2023-01-04T10:08:19.935Z,98728.00
2023-01-04T10:10:57.939Z,98720.00
2023-01-04T10:13:47.597Z,98712.00
2023-01-04T10:16:44.248Z,98732.00
2023-01-04T10:21:10.646Z,98722.00
2023-01-04T10:22:21.298Z,98727.00
2023-01-04T10:24:59.210Z,98718.00
2023-01-04T10:27:53.614Z,98703.00
2023-01-04T10:30:31.180Z,98705.00
2023-01-04T10:33:08.104Z,98698.00
2023-01-04T10:35:36.923Z,98701.00
2023-01-04T10:38:16.665Z,98695.00
2023-01-04T10:40:47.113Z,98701.00
2023-01-04T10:43:22.370Z,98693.00
2023-01-04T10:45:58.222Z,98684.00
2023-01-04T10:48:34.154Z,98683.00
2023-01-04T10:51:09.897Z,98682.00
2023-01-04T10:53:44.698Z,98676.00
2023-01-04T10:56:25.022Z,98658.00
2023-01-04T10:59:00.025Z,98654.00
2023-01-04T11:01:33.063Z,98640.00
2023-01-04T11:04:07.102Z,98641.00
2023-01-04T11:06:40.264Z,98636.00
2023-01-04T11:09:13.333Z,98629.00
2023-01-04T11:11:45.085Z,98637.00
2023-01-04T11:14:13.963Z,98632.00
2023-01-04T11:16:45.463Z,98643.00
2023-01-04T11:19:13.442Z,98643.00
2023-01-04T11:21:47.708Z,98648.00
2023-01-04T11:24:33.485Z,98644.00
2023-01-04T11:27:06.401Z,98647.00
2023-01-04T11:29:38.791Z,98638.00
2023-01-04T11:32:17.200Z,98632.00
2023-01-04T11:34:47.305Z,98627.00
2023-01-04T11:37:26.673Z,98630.00
2023-01-04T11:40:13.398Z,98615.00
2023-01-04T11:42:41.051Z,98607.00
2023-01-04T11:45:19.010Z,98611.00
2023-01-04T11:47:53.301Z,98601.00
2023-01-04T11:50:42.090Z,98606.00
2023-01-04T11:53:28.839Z,98608.00
2023-01-04T11:56:14.258Z,98606.00
2023-01-04T11:58:43.010Z,98602.00
2023-01-04T12:01:21.744Z,98601.00
2023-01-04T12:03:51.276Z,98590.00
2023-01-04T12:06:21.632Z,98594.00
2023-01-04T12:08:49.941Z,98606.00
2023-01-04T12:11:22.293Z,98591.00
2023-01-04T12:13:49.961Z,98582.00
2023-01-04T12:16:23.111Z,98581.00
2023-01-04T12:18:52.540Z,98568.00
2023-01-04T12:21:22.716Z,98555.00
2023-01-04T12:23:51.769Z,98550.00
2023-01-04T12:26:23.360Z,98549.00
2023-01-04T12:29:00.319Z,98546.00
2023-01-04T12:31:34.234Z,98545.00
2023-01-04T12:34:47.052Z,98542.00
2023-01-04T12:37:49.320Z,98549.00
2023-01-04T12:40:55.627Z,98547.00
2023-01-04T12:43:28.307Z,98549.00
2023-01-04T12:46:50.470Z,98542.00
2023-01-04T12:49:52.376Z,98520.00
2023-01-04T12:55:59.267Z,98521.00
2023-01-04T13:02:17.565Z,98506.00
2023-01-04T13:04:45.629Z,98499.00
2023-01-04T13:07:20.083Z,98503.00
2023-01-04T13:09:57.607Z,98492.00
2023-01-04T13:12:59.293Z,98481.00
2023-01-04T13:15:42.024Z,98477.00
2023-01-04T13:18:28.971Z,98477.00
2023-01-04T13:20:57.603Z,98475.00
2023-01-04T13:23:28.274Z,98465.00
2023-01-04T13:25:56.288Z,98454.00
2023-01-04T13:28:24.940Z,98471.00
2023-01-04T13:31:01.206Z,98464.00
2023-01-04T13:33:29.175Z,98476.00
2023-01-04T13:36:04.447Z,98476.00
2023-01-04T13:38:35.389Z,98486.00
2023-01-04T13:41:07.585Z,98484.00
2023-01-04T13:43:57.702Z,98479.00
2023-01-04T13:46:27.904Z,98477.00
2023-01-04T13:49:02.032Z,98471.00
2023-01-04T13:51:37.014Z,98468.00
2023-01-04T13:54:17.966Z,98463.00
2023-01-04T13:56:51.462Z,98458.00
2023-01-04T13:59:22.792Z,98453.00
2023-01-04T14:01:51.690Z,98441.00
2023-01-04T14:04:26.517Z,98439.00
2023-01-04T14:06:57.681Z,98425.00
2023-01-04T14:09:29.934Z,98422.00
2023-01-04T14:12:08.518Z,98428.00
2023-01-04T14:14:48.467Z,98420.00
2023-01-04T14:17:19.995Z,98426.00
2023-01-04T14:19:50.490Z,98429.00
2023-01-04T14:22:52.594Z,98422.00
2023-01-04T14:25:44.998Z,98436.00
2023-01-04T14:28:36.201Z,98437.00
2023-01-04T14:31:19.654Z,98430.00
2023-01-04T14:33:48.863Z,98440.00
2023-01-04T14:36:21.037Z,98437.00
2023-01-04T14:38:56.948Z,98445.00
2023-01-04T14:41:29.281Z,98445.00
2023-01-04T14:44:09.700Z,98440.00
2023-01-04T14:46:37.626Z,98438.00
2023-01-04T14:49:05.306Z,98430.00
2023-01-04T14:51:37.936Z,98439.00
2023-01-04T14:54:06.483Z,98433.00
2023-01-04T14:56:35.931Z,98438.00
2023-01-04T14:59:03.592Z,98433.00
2023-01-04T15:01:31.432Z,98434.00
2023-01-04T15:03:59.219Z,98435.00
2023-01-04T15:06:27.316Z,98431.00
2023-01-04T15:08:54.937Z,98431.00
2023-01-04T15:11:22.647Z,98431.00
2023-01-04T15:13:51.853Z,98414.00
2023-01-04T15:16:19.873Z,98409.00
2023-01-04T15:18:47.984Z,98404.00
2023-01-04T15:21:16.033Z,98403.00
2023-01-04T15:23:43.786Z,98392.00
2023-01-04T15:26:12.812Z,98388.00
2023-01-04T15:28:40.495Z,98378.00
2023-01-04T15:31:11.896Z,98386.00
2023-01-04T15:33:40.025Z,98383.00
2023-01-04T15:36:10.550Z,98381.00
2023-01-04T15:38:38.426Z,98371.00
2023-01-04T15:41:07.916Z,98372.00
2023-01-04T15:43:36.615Z,98386.00
2023-01-04T15:46:07.347Z,98380.00
2023-01-04T15:48:37.260Z,98385.00
2023-01-04T15:51:07.696Z,98377.00
2023-01-04T15:53:35.714Z,98383.00
2023-01-04T15:56:08.630Z,98382.00
2023-01-04T15:58:36.567Z,98370.00
2023-01-04T16:01:09.262Z,98367.00
2023-01-04T16:03:39.104Z,98355.00
2023-01-04T16:06:09.033Z,98347.00
2023-01-04T16:08:36.850Z,98344.00
2023-01-04T16:11:12.781Z,98348.00
2023-01-04T16:13:41.433Z,98353.00
2023-01-04T16:16:10.036Z,98346.00
2023-01-04T16:18:40.215Z,98350.00
2023-01-04T16:21:08.995Z,98338.00
2023-01-04T16:23:36.972Z,98339.00
2023-01-04T16:26:07.106Z,98334.00
2023-01-04T16:28:35.292Z,98330.00
2023-01-04T16:31:03.008Z,98328.00
2023-01-04T16:33:32.910Z,98327.00
2023-01-04T16:36:05.271Z,98332.00
2023-01-04T16:38:36.095Z,98329.00
2023-01-04T16:41:04.992Z,98327.00
2023-01-04T16:43:33.389Z,98326.00
2023-01-04T16:46:21.519Z,98334.00
2023-01-04T16:48:51.149Z,98335.00
2023-01-04T16:51:20.545Z,98339.00
2023-01-04T16:53:48.388Z,98332.00
2023-01-04T16:56:18.090Z,98336.00
2023-01-04T16:58:46.975Z,98332.00
2023-01-04T17:01:16.640Z,98330.00
2023-01-04T17:03:46.413Z,98324.00
2023-01-04T17:06:16.393Z,98327.00
2023-01-04T17:08:46.807Z,98319.00
2023-01-04T17:12:04.960Z,98310.00
2023-01-04T17:14:04.640Z,98324.00
2023-01-04T17:16:34.997Z,98327.00
2023-01-04T17:19:03.173Z,98330.00
2023-01-04T17:21:34.326Z,98329.00
2023-01-04T17:24:04.743Z,98314.00
2023-01-04T17:26:34.091Z,98314.00
2023-01-04T17:29:02.874Z,98317.00
2023-01-04T17:31:32.450Z,98324.00
2023-01-04T17:34:00.387Z,98323.00
2023-01-04T17:36:28.070Z,98316.00
2023-01-04T17:38:56.065Z,98310.00
2023-01-04T17:41:26.978Z,98306.00
2023-01-04T17:43:57.264Z,98293.00
2023-01-04T17:46:27.413Z,98289.00
2023-01-04T17:49:21.195Z,98289.00
2023-01-04T17:51:43.186Z,98292.00
2023-01-04T17:54:11.896Z,98294.00
2023-01-04T17:56:40.890Z,98288.00
2023-01-04T17:59:08.540Z,98288.00
2023-01-04T18:01:36.737Z,98284.00
2023-01-04T18:04:04.957Z,98292.00
2023-01-04T18:06:34.935Z,98281.00
2023-01-04T18:09:04.496Z,98286.00
2023-01-04T18:11:32.388Z,98289.00
2023-01-04T18:14:04.211Z,98293.00
2023-01-04T18:16:55.694Z,98291.00
2023-01-04T18:19:24.651Z,98283.00
2023-01-04T18:21:52.343Z,98272.00
2023-01-04T18:24:37.167Z,98278.00
2023-01-04T18:27:23.238Z,98274.00
2023-01-04T18:29:54.835Z,98267.00
2023-01-04T18:32:22.657Z,98271.00
2023-01-04T18:34:50.338Z,98267.00
2023-01-04T18:37:18.641Z,98279.00
2023-01-04T18:39:47.312Z,98275.00
2023-01-04T18:42:15.059Z,98269.00
2023-01-04T18:44:47.885Z,98271.00
2023-01-04T18:47:18.767Z,98268.00
2023-01-04T18:49:46.499Z,98261.00
2023-01-04T18:52:14.585Z,98265.00
2023-01-04T18:54:43.803Z,98263.00
2023-01-04T18:57:11.736Z,98254.00
2023-01-04T18:59:39.332Z,98257.00
2023-01-04T19:02:07.156Z,98257.00
2023-01-04T19:04:37.455Z,98258.00
2023-01-04T19:07:05.162Z,98258.00
2023-01-04T19:09:32.774Z,98257.00
2023-01-04T19:12:00.461Z,98264.00
2023-01-04T19:14:28.069Z,98266.00
2023-01-04T19:16:55.743Z,98264.00
2023-01-04T19:19:23.464Z,98269.00
2023-01-04T19:21:52.468Z,98272.00
2023-01-04T19:24:20.113Z,98271.00
2023-01-04T19:26:47.766Z,98275.00
2023-01-04T19:29:15.370Z,98284.00
2023-01-04T19:31:43.039Z,98272.00
2023-01-04T19:34:10.912Z,98271.00
2023-01-04T19:36:38.646Z,98271.00
2023-01-04T19:39:09.378Z,98264.00
2023-01-04T19:41:38.172Z,98260.00
2023-01-04T19:44:08.151Z,98260.00
2023-01-04T19:46:38.024Z,98252.00
2023-01-04T19:49:09.449Z,98261.00
2023-01-04T19:51:43.775Z,98261.00
2023-01-04T19:54:13.651Z,98260.00
2023-01-04T19:56:41.539Z,98264.00
2023-01-04T19:59:09.336Z,98250.00
2023-01-04T20:01:38.165Z,98256.00
2023-01-04T20:04:06.104Z,98245.00
2023-01-04T20:06:33.850Z,98249.00
2023-01-04T20:09:01.576Z,98252.00
2023-01-04T20:11:30.575Z,98255.00
2023-01-04T20:13:58.240Z,98261.00
2023-01-04T20:16:26.090Z,98265.00
2023-01-04T20:18:55.654Z,98266.00
2023-01-04T20:21:23.439Z,98281.00
2023-01-04T20:23:51.071Z,98269.00
2023-01-04T20:26:19.642Z,98274.00
2023-01-04T20:28:48.723Z,98284.00
2023-01-04T20:31:17.925Z,98279.00
2023-01-04T20:33:45.870Z,98287.00
2023-01-04T20:36:16.208Z,98261.00
2023-01-04T20:38:45.727Z,98266.00
2023-01-04T20:41:16.182Z,98271.00
2023-01-04T20:43:43.614Z,98265.00
2023-01-04T20:46:14.709Z,98279.00
2023-01-04T20:48:43.201Z,98268.00
2023-01-04T20:51:14.717Z,98267.00
2023-01-04T20:53:42.607Z,98264.00
2023-01-04T20:56:14.204Z,98266.00
2023-01-04T20:58:41.985Z,98267.00
2023-01-04T21:01:10.305Z,98274.00
2023-01-04T21:03:39.443Z,98260.00
2023-01-04T21:06:09.187Z,98270.00
2023-01-04T21:08:37.972Z,98267.00
2023-01-04T21:11:06.009Z,98268.00
2023-01-04T21:13:34.123Z,98271.00
2023-01-04T21:16:01.865Z,98267.00
2023-01-04T21:18:29.675Z,98278.00
2023-01-04T21:20:58.628Z,98272.00
2023-01-04T21:23:27.871Z,98259.00
2023-01-04T21:25:57.061Z,98259.00
2023-01-04T21:28:24.677Z,98270.00
2023-01-04T21:30:52.437Z,98254.00
2023-01-04T21:33:20.102Z,98254.00
2023-01-04T21:35:47.701Z,98237.00
2023-01-04T21:38:16.774Z,98224.00
2023-01-04T21:40:44.719Z,98217.00
2023-01-04T21:43:17.224Z,98218.00
2023-01-04T21:45:44.879Z,98221.00
2023-01-04T21:48:12.647Z,98221.00
2023-01-04T21:50:40.355Z,98216.00
2023-01-04T21:53:07.968Z,98218.00
2023-01-04T21:55:36.956Z,98212.00
2023-01-04T21:58:04.757Z,98203.00
2023-01-04T22:00:32.415Z,98208.00
2023-01-04T22:03:00.105Z,98204.00
2023-01-04T22:05:27.805Z,98201.00
2023-01-04T22:07:55.601Z,98204.00
2023-01-04T22:10:23.239Z,98199.00
2023-01-04T22:12:52.189Z,98201.00
2023-01-04T22:15:19.828Z,98198.00
2023-01-04T22:17:47.958Z,98193.00
2023-01-04T22:20:15.737Z,98205.00
2023-01-04T22:22:43.413Z,98222.00
2023-01-04T22:25:11.318Z,98229.00
2023-01-04T22:27:39.028Z,98235.00
2023-01-04T22:30:09.211Z,98236.00
2023-01-04T22:32:36.832Z,98228.00
2023-01-04T22:35:04.885Z,98219.00
2023-01-04T22:37:32.552Z,98230.00
2023-01-04T22:40:00.284Z,98222.00
2023-01-04T22:42:28.057Z,98227.00
2023-01-04T22:44:55.664Z,98222.00
2023-01-04T22:47:24.651Z,98211.00
2023-01-04T22:49:52.301Z,98221.00
2023-01-04T22:52:19.945Z,98209.00
2023-01-04T22:54:48.604Z,98214.00
2023-01-04T22:57:16.830Z,98219.00
2023-01-04T22:59:44.488Z,98219.00
2023-01-04T23:02:12.245Z,98208.00
2023-01-04T23:04:41.553Z,98218.00
2023-01-04T23:07:09.180Z,98218.00
2023-01-04T23:09:37.004Z,98215.00
2023-01-04T23:12:05.099Z,98221.00
2023-01-04T23:14:32.782Z,98216.00
2023-01-04T23:17:00.475Z,98219.00
2023-01-04T23:19:28.412Z,98213.00
2023-01-04T23:21:57.384Z,98205.00
2023-01-04T23:24:25.099Z,98201.00
2023-01-04T23:26:52.790Z,98198.00
2023-01-04T23:29:20.456Z,98175.00
2023-01-04T23:31:48.218Z,98186.00
2023-01-04T23:34:15.946Z,98200.00
2023-01-04T23:36:43.719Z,98183.00
2023-01-04T23:39:15.445Z,98181.00
2023-01-04T23:41:46.863Z,98186.00
2023-01-04T23:44:17.720Z,98184.00
2023-01-04T23:46:46.086Z,98171.00
2023-01-04T23:49:14.517Z,98176.00
2023-01-04T23:51:43.396Z,98164.00
2023-01-04T23:54:11.403Z,98161.00
2023-01-04T23:56:40.762Z,98167.00
2023-01-04T23:59:08.911Z,98159.00
